createdAt,value
2018-04-01T00:01:54.327Z,1.90
2018-04-01T00:04:21.272Z,1.90
2018-04-01T00:06:48.233Z,1.90
2018-04-01T00:09:15.179Z,1.90
2018-04-01T00:11:42.138Z,1.90
2018-04-01T00:14:09.848Z,2.00
2018-04-01T00:16:36.858Z,1.90
2018-04-01T00:19:03.865Z,1.90
2018-04-01T00:21:30.810Z,1.90
2018-04-01T00:23:57.753Z,2.00
2018-04-01T00:26:24.706Z,2.00
2018-04-01T00:28:51.686Z,2.10
2018-04-01T00:31:18.654Z,2.10
2018-04-01T00:33:45.618Z,2.00
2018-04-01T00:36:12.622Z,2.00
2018-04-01T00:38:39.611Z,2.00
2018-04-01T00:41:06.573Z,2.00
2018-04-01T00:43:33.628Z,2.10
2018-04-01T00:46:00.654Z,2.00
2018-04-01T00:48:27.690Z,2.10
2018-04-01T00:50:54.747Z,2.10
2018-04-01T00:53:21.802Z,2.00
2018-04-01T00:55:48.755Z,2.00
2018-04-01T00:58:15.789Z,2.00
2018-04-01T01:00:42.818Z,2.00
2018-04-01T01:03:09.770Z,1.90
2018-04-01T01:05:36.715Z,1.90
2018-04-01T01:08:03.662Z,1.90
2018-04-01T01:10:30.733Z,1.90
2018-04-01T01:12:57.798Z,1.90
2018-04-01T01:15:25.540Z,2.00
2018-04-01T01:17:52.491Z,2.00
2018-04-01T01:20:19.435Z,2.00
2018-04-01T01:22:46.378Z,2.00
2018-04-01T01:25:13.322Z,1.90
2018-04-01T01:27:40.321Z,1.90
2018-04-01T01:30:07.251Z,2.00
2018-04-01T01:32:34.207Z,2.00
2018-04-01T01:35:01.150Z,1.90
2018-04-01T01:37:28.130Z,1.90
2018-04-01T01:39:55.094Z,1.90
2018-04-01T01:42:22.114Z,1.90
2018-04-01T01:44:49.190Z,2.00
2018-04-01T01:47:17.046Z,1.90
2018-04-01T01:49:44.806Z,1.90
2018-04-01T01:52:11.776Z,1.90
2018-04-01T01:54:39.490Z,1.90
2018-04-01T01:57:06.437Z,1.90
2018-04-01T01:59:33.407Z,1.90
2018-04-01T02:02:00.341Z,2.00
2018-04-01T02:04:27.294Z,1.90
2018-04-01T02:06:54.345Z,1.90
2018-04-01T02:09:22.829Z,1.90
2018-04-01T02:11:49.772Z,1.90
2018-04-01T02:14:16.743Z,2.00
2018-04-01T02:16:44.445Z,2.00
2018-04-01T02:19:21.671Z,1.90
2018-04-01T02:21:48.617Z,2.00
2018-04-01T02:24:15.923Z,1.90
2018-04-01T02:26:42.858Z,1.90
2018-04-01T02:29:09.838Z,1.90
2018-04-01T02:31:36.998Z,1.90
2018-04-01T02:34:03.964Z,1.90
2018-04-01T02:36:30.979Z,2.00
2018-04-01T02:38:58.032Z,2.00
2018-04-01T02:41:25.050Z,2.00
2018-04-01T02:43:52.061Z,2.00
2018-04-01T02:46:19.814Z,2.00
2018-04-01T02:48:46.831Z,2.10
2018-04-01T02:51:13.771Z,2.10
2018-04-01T02:53:40.824Z,2.10
2018-04-01T02:56:07.776Z,2.10
2018-04-01T02:58:34.815Z,2.10
2018-04-01T03:01:01.776Z,2.10
2018-04-01T03:03:28.740Z,2.10
2018-04-01T03:05:56.454Z,2.20
2018-04-01T03:08:23.403Z,2.10
2018-04-01T03:10:50.350Z,2.20
2018-04-01T03:13:17.306Z,2.10
2018-04-01T03:15:44.334Z,2.10
2018-04-01T03:18:11.392Z,2.10
2018-04-01T03:20:38.360Z,2.00
2018-04-01T03:23:05.318Z,2.00
2018-04-01T03:25:33.026Z,2.00
2018-04-01T03:28:00.091Z,2.00
2018-04-01T03:30:27.043Z,2.00
2018-04-01T03:32:53.989Z,2.00
2018-04-01T03:35:21.018Z,2.10
2018-04-01T03:37:47.966Z,2.10
2018-04-01T03:40:14.922Z,2.10
2018-04-01T03:42:41.970Z,2.00
2018-04-01T03:45:09.001Z,2.00
2018-04-01T03:47:35.947Z,2.00
2018-04-01T03:50:02.891Z,2.00
2018-04-01T03:52:29.942Z,1.90
2018-04-01T03:54:56.986Z,1.90
2018-04-01T03:57:23.933Z,2.00
2018-04-01T03:59:50.873Z,2.00
2018-04-01T04:02:18.027Z,2.00
2018-04-01T04:04:44.966Z,2.00
2018-04-01T04:07:11.996Z,2.00
2018-04-01T04:09:38.925Z,2.00
2018-04-01T04:12:05.879Z,1.80
2018-04-01T04:14:32.825Z,1.80
2018-04-01T04:16:59.774Z,1.80
2018-04-01T04:19:26.735Z,1.80
2018-04-01T04:21:53.682Z,1.80
2018-04-01T04:24:20.625Z,1.90
2018-04-01T04:26:47.575Z,2.00
2018-04-01T04:29:14.514Z,1.90
2018-04-01T04:31:41.468Z,1.90
2018-04-01T04:34:08.406Z,1.90
2018-04-01T04:36:35.430Z,1.90
2018-04-01T04:39:02.354Z,1.90
2018-04-01T04:41:29.314Z,2.00
2018-04-01T04:43:56.265Z,2.00
2018-04-01T04:46:23.207Z,2.00
2018-04-01T04:48:50.159Z,1.90
2018-04-01T04:51:17.113Z,2.00
2018-04-01T04:53:44.101Z,2.00
2018-04-01T04:56:11.026Z,2.00
2018-04-01T04:58:37.979Z,2.00
2018-04-01T05:01:05.017Z,1.90
2018-04-01T05:03:31.962Z,1.90
2018-04-01T05:06:00.422Z,1.90
2018-04-01T05:08:27.422Z,1.90
2018-04-01T05:10:54.333Z,2.00
2018-04-01T05:13:21.644Z,2.00
2018-04-01T05:15:48.615Z,2.00
2018-04-01T05:18:15.572Z,2.00
2018-04-01T05:20:44.117Z,2.00
2018-04-01T05:23:11.050Z,2.00
2018-04-01T05:25:38.897Z,2.00
2018-04-01T05:28:06.729Z,2.00
2018-04-01T05:30:33.750Z,1.90
2018-04-01T05:33:00.718Z,2.00
2018-04-01T05:35:27.666Z,1.90
2018-04-01T05:37:54.743Z,2.00
2018-04-01T05:40:22.476Z,1.90
2018-04-01T05:42:49.426Z,1.90
2018-04-01T05:45:16.378Z,2.00
2018-04-01T05:47:43.385Z,1.90
2018-04-01T05:50:10.338Z,1.80
2018-04-01T05:52:37.290Z,1.80
2018-04-01T05:55:04.238Z,1.90
2018-04-01T05:57:31.277Z,1.90
2018-04-01T05:59:58.315Z,1.90
2018-04-01T06:02:25.357Z,1.90
2018-04-01T06:04:52.393Z,2.00
2018-04-01T06:07:19.328Z,2.00
2018-04-01T06:09:46.294Z,2.00
2018-04-01T06:12:13.263Z,1.90
2018-04-01T06:14:40.286Z,2.00
2018-04-01T06:17:07.256Z,2.00
2018-04-01T06:19:34.281Z,2.00
2018-04-01T06:22:01.227Z,2.10
2018-04-01T06:24:28.182Z,2.10
2018-04-01T06:26:55.200Z,2.10
2018-04-01T06:29:22.270Z,2.10
2018-04-01T06:31:49.426Z,2.10
2018-04-01T06:34:16.376Z,2.00
2018-04-01T06:36:43.360Z,2.00
2018-04-01T06:39:10.354Z,2.00
2018-04-01T06:41:37.347Z,2.00
2018-04-01T06:44:05.042Z,2.10
2018-04-01T06:46:32.084Z,2.00
2018-04-01T06:48:59.165Z,2.10
2018-04-01T06:51:26.379Z,2.20
2018-04-01T06:53:53.337Z,2.20
2018-04-01T06:56:20.393Z,2.20
2018-04-01T06:58:47.442Z,2.30
2018-04-01T07:01:14.446Z,2.30
2018-04-01T07:03:41.382Z,2.30
2018-04-01T07:06:08.349Z,2.30
2018-04-01T07:08:35.348Z,2.40
2018-04-01T07:11:02.355Z,2.50
2018-04-01T07:13:29.423Z,2.60
2018-04-01T07:15:56.431Z,2.60
2018-04-01T07:18:23.486Z,2.60
2018-04-01T07:20:50.454Z,2.60
2018-04-01T07:23:17.618Z,2.60
2018-04-01T07:25:44.647Z,2.50
2018-04-01T07:28:11.606Z,2.50
2018-04-01T07:30:39.394Z,2.50
2018-04-01T07:33:07.139Z,2.60
2018-04-01T07:35:34.098Z,2.60
2018-04-01T07:38:01.129Z,2.60
2018-04-01T07:40:28.087Z,2.60
2018-04-01T07:42:55.103Z,2.50
2018-04-01T07:45:22.179Z,2.60
2018-04-01T07:47:49.172Z,2.70
2018-04-01T07:50:16.141Z,2.80
2018-04-01T07:52:43.094Z,2.80
2018-04-01T07:55:10.109Z,2.80
2018-04-01T07:57:37.109Z,2.80
2018-04-01T08:00:04.054Z,2.80
2018-04-01T08:02:31.022Z,2.70
2018-04-01T08:04:57.957Z,2.80
2018-04-01T08:07:26.629Z,2.90
2018-04-01T08:09:53.569Z,2.90
2018-04-01T08:12:20.518Z,2.90
2018-04-01T08:14:48.265Z,3.00
2018-04-01T08:17:15.299Z,2.90
2018-04-01T08:19:42.316Z,3.00
2018-04-01T08:22:09.373Z,3.00
2018-04-01T08:24:36.302Z,2.90
2018-04-01T08:27:03.723Z,3.00
2018-04-01T08:29:31.458Z,3.00
2018-04-01T08:31:58.410Z,2.90
2018-04-01T08:34:25.479Z,3.00
2018-04-01T08:36:53.186Z,3.10
2018-04-01T08:39:20.185Z,3.10
2018-04-01T08:41:47.273Z,3.10
2018-04-01T08:44:14.256Z,3.20
2018-04-01T08:46:41.202Z,3.20
2018-04-01T08:49:08.167Z,3.10
2018-04-01T08:51:35.973Z,3.20
2018-04-01T08:54:03.018Z,3.10
2018-04-01T08:56:29.938Z,3.10
2018-04-01T08:58:57.729Z,3.30
2018-04-01T09:01:24.657Z,3.20
2018-04-01T09:03:51.641Z,3.40
2018-04-01T09:06:18.685Z,3.40
2018-04-01T09:08:45.729Z,3.30
2018-04-01T09:11:12.678Z,3.30
2018-04-01T09:13:39.663Z,3.20
2018-04-01T09:16:07.365Z,3.30
2018-04-01T09:18:34.327Z,3.30
2018-04-01T09:21:01.362Z,3.50
2018-04-01T09:23:28.286Z,3.70
2018-04-01T09:25:55.258Z,3.80
2018-04-01T09:28:22.194Z,3.80
2018-04-01T09:30:49.222Z,3.70
2018-04-01T09:33:16.207Z,3.50
2018-04-01T09:35:43.226Z,3.50
2018-04-01T09:38:10.172Z,3.70
2018-04-01T09:40:37.122Z,3.80
2018-04-01T09:43:04.083Z,4.00
2018-04-01T09:45:31.070Z,4.00
2018-04-01T09:47:58.774Z,4.00
2018-04-01T09:50:25.734Z,3.90
2018-04-01T09:52:52.678Z,4.00
2018-04-01T09:55:19.804Z,3.90
2018-04-01T09:57:46.753Z,3.80
2018-04-01T10:00:28.604Z,3.80
2018-04-01T10:02:56.795Z,3.90
2018-04-01T10:05:24.383Z,3.90
2018-04-01T10:07:51.809Z,4.00
2018-04-01T10:10:19.306Z,4.00
2018-04-01T10:12:46.770Z,4.20
2018-04-01T10:15:14.307Z,4.20
2018-04-01T10:17:41.763Z,4.10
2018-04-01T10:20:09.220Z,4.00
2018-04-01T10:22:36.633Z,4.30
2018-04-01T10:25:04.863Z,4.70
2018-04-01T10:27:32.294Z,4.60
2018-04-01T10:29:59.864Z,4.90
2018-04-01T10:32:27.275Z,5.00
2018-04-01T10:34:54.710Z,4.90
2018-04-01T10:37:22.146Z,4.70
2018-04-01T10:39:49.582Z,4.40
2018-04-01T10:42:17.006Z,4.20
2018-04-01T10:44:45.210Z,4.10
2018-04-01T10:47:12.776Z,4.00
2018-04-01T10:49:40.188Z,4.00
2018-04-01T10:52:08.507Z,4.10
2018-04-01T10:54:35.555Z,4.10
2018-04-01T10:57:02.502Z,4.30
2018-04-01T10:59:29.430Z,4.40
2018-04-01T11:01:56.418Z,4.60
2018-04-01T11:04:23.466Z,4.50
2018-04-01T11:06:50.481Z,4.50
2018-04-01T11:09:17.408Z,4.50
2018-04-01T11:11:44.355Z,4.50
2018-04-01T11:14:11.312Z,4.40
2018-04-01T11:16:38.262Z,4.20
2018-04-01T11:19:05.219Z,4.20
2018-04-01T11:21:32.269Z,4.20
2018-04-01T11:23:59.210Z,4.20
2018-04-01T11:26:26.158Z,4.20
2018-04-01T11:28:53.213Z,4.20
2018-04-01T11:31:20.255Z,4.20
2018-04-01T11:33:47.206Z,4.10
2018-04-01T11:36:14.152Z,4.00
2018-04-01T11:38:41.192Z,4.10
2018-04-01T11:41:08.248Z,4.20
2018-04-01T11:43:35.306Z,4.20
2018-04-01T11:46:02.262Z,4.20
2018-04-01T11:48:29.221Z,4.30
2018-04-01T11:50:56.970Z,4.30
2018-04-01T11:53:23.994Z,4.20
2018-04-01T11:55:51.013Z,4.30
2018-04-01T11:58:17.958Z,4.40
2018-04-01T12:00:44.937Z,4.40
2018-04-01T12:03:11.946Z,4.40
2018-04-01T12:05:38.925Z,4.30
2018-04-01T12:08:06.041Z,4.20
2018-04-01T12:10:32.985Z,4.20
2018-04-01T12:12:59.933Z,4.20
2018-04-01T12:15:26.881Z,4.30
2018-04-01T12:17:53.857Z,4.40
2018-04-01T12:20:20.890Z,4.30
2018-04-01T12:22:47.931Z,4.20
2018-04-01T12:25:15.001Z,4.30
2018-04-01T12:27:42.015Z,4.20
2018-04-01T12:30:08.946Z,4.30
2018-04-01T12:32:36.427Z,4.30
2018-04-01T12:35:03.378Z,4.40
2018-04-01T12:37:30.452Z,4.30
2018-04-01T12:39:57.392Z,4.40
2018-04-01T12:42:24.376Z,4.40
2018-04-01T12:44:51.466Z,4.40
2018-04-01T12:47:18.518Z,4.40
2018-04-01T12:49:45.558Z,4.60
2018-04-01T12:52:12.508Z,4.60
2018-04-01T12:54:39.537Z,4.60
2018-04-01T12:57:06.491Z,4.80
2018-04-01T12:59:33.441Z,4.90
2018-04-01T13:02:00.389Z,4.90
2018-04-01T13:04:27.407Z,4.90
2018-04-01T13:06:54.377Z,5.10
2018-04-01T13:09:21.414Z,5.20
2018-04-01T13:11:48.422Z,5.20
2018-04-01T13:14:15.379Z,5.30
2018-04-01T13:16:42.327Z,5.30
2018-04-01T13:19:09.493Z,5.30
2018-04-01T13:21:36.461Z,5.40
2018-04-01T13:24:03.408Z,5.50
2018-04-01T13:26:30.354Z,5.60
2018-04-01T13:28:57.294Z,5.70
2018-04-01T13:31:24.669Z,5.80
2018-04-01T13:33:51.778Z,5.90
2018-04-01T13:36:18.812Z,6.00
2018-04-01T13:38:45.747Z,6.10
2018-04-01T13:41:12.700Z,6.10
2018-04-01T13:43:39.639Z,6.10
2018-04-01T13:46:06.602Z,6.00
2018-04-01T13:48:33.689Z,5.90
2018-04-01T13:51:01.432Z,5.90
2018-04-01T13:53:28.387Z,5.90
2018-04-01T13:55:55.348Z,6.00
2018-04-01T13:58:22.280Z,5.90
2018-04-01T14:00:49.218Z,6.00
2018-04-01T14:03:16.279Z,6.10
2018-04-01T14:05:43.271Z,6.10
2018-04-01T14:08:10.216Z,6.10
2018-04-01T14:10:37.182Z,6.10
2018-04-01T14:13:04.131Z,6.10
2018-04-01T14:15:31.170Z,6.00
2018-04-01T14:17:58.123Z,6.00
2018-04-01T14:20:25.066Z,6.10
2018-04-01T14:22:52.109Z,6.00
2018-04-01T14:25:19.066Z,6.20
2018-04-01T14:27:46.040Z,6.20
2018-04-01T14:30:12.963Z,6.10
2018-04-01T14:32:39.897Z,6.00
2018-04-01T14:35:06.856Z,6.00
2018-04-01T14:37:33.801Z,6.10
2018-04-01T14:40:00.806Z,6.10
2018-04-01T14:42:27.763Z,6.10
2018-04-01T14:44:54.708Z,6.00
2018-04-01T14:47:21.661Z,6.10
2018-04-01T14:49:48.606Z,6.10
2018-04-01T14:52:15.656Z,6.00
2018-04-01T14:54:42.673Z,6.00
2018-04-01T14:57:09.729Z,5.90
2018-04-01T14:59:36.766Z,6.00
2018-04-01T15:02:03.711Z,5.80
2018-04-01T15:04:30.659Z,5.80
2018-04-01T15:06:58.728Z,5.70
2018-04-01T15:09:25.796Z,5.70
2018-04-01T15:11:52.742Z,5.70
2018-04-01T15:14:19.752Z,5.80
2018-04-01T15:16:47.146Z,6.00
2018-04-01T15:19:15.007Z,6.00
2018-04-01T15:21:41.953Z,6.10
2018-04-01T15:24:08.954Z,6.20
2018-04-01T15:26:36.024Z,6.20
2018-04-01T15:29:02.953Z,6.20
2018-04-01T15:31:29.945Z,6.10
2018-04-01T15:33:56.886Z,6.10
2018-04-01T15:36:24.113Z,5.80
2018-04-01T15:38:51.041Z,5.80
2018-04-01T15:41:17.999Z,5.70
2018-04-01T15:43:45.798Z,5.70
2018-04-01T15:46:12.782Z,5.70
2018-04-01T15:48:40.658Z,6.30
2018-04-01T15:51:07.686Z,6.20
2018-04-01T15:53:35.390Z,6.70
2018-04-01T15:56:02.337Z,6.60
2018-04-01T15:58:29.294Z,7.30
2018-04-01T16:00:56.342Z,7.60
2018-04-01T16:03:23.383Z,7.90
2018-04-01T16:05:50.326Z,7.80
2018-04-01T16:08:17.400Z,7.70
2018-04-01T16:10:44.430Z,7.60
2018-04-01T16:13:11.394Z,7.80
2018-04-01T16:15:38.414Z,7.80
2018-04-01T16:18:05.370Z,7.80
2018-04-01T16:20:32.305Z,7.70
2018-04-01T16:22:59.351Z,7.90
2018-04-01T16:25:26.403Z,8.00
2018-04-01T16:27:53.386Z,7.70
2018-04-01T16:30:21.098Z,7.40
2018-04-01T16:32:48.046Z,7.40
2018-04-01T16:35:15.035Z,7.30
2018-04-01T16:37:41.989Z,7.60
2018-04-01T16:40:09.714Z,7.20
2018-04-01T16:42:36.835Z,7.20
2018-04-01T16:45:03.887Z,6.80
2018-04-01T16:47:30.821Z,6.70
2018-04-01T16:49:57.806Z,6.60
2018-04-01T16:52:24.781Z,6.80
2018-04-01T16:54:52.503Z,6.90
2018-04-01T16:57:19.493Z,6.90
2018-04-01T16:59:46.466Z,6.70
2018-04-01T17:02:13.441Z,6.60
2018-04-01T17:04:40.378Z,6.80
2018-04-01T17:07:07.330Z,6.90
2018-04-01T17:09:34.537Z,6.80
2018-04-01T17:12:01.508Z,6.80
2018-04-01T17:14:28.582Z,6.90
2018-04-01T17:16:55.535Z,6.70
2018-04-01T17:19:22.485Z,6.50
2018-04-01T17:21:49.420Z,6.50
2018-04-01T17:24:16.433Z,6.40
2018-04-01T17:26:43.481Z,6.10
2018-04-01T17:29:10.446Z,5.90
2018-04-01T17:31:37.399Z,5.80
2018-04-01T17:34:04.339Z,5.50
2018-04-01T17:36:31.363Z,5.30
2018-04-01T17:38:58.301Z,5.10
2018-04-01T17:41:25.257Z,5.00
2018-04-01T17:43:52.298Z,4.80
2018-04-01T17:46:19.231Z,4.60
2018-04-01T17:48:46.170Z,4.50
2018-04-01T17:51:13.140Z,4.50
2018-04-01T17:53:40.180Z,4.40
2018-04-01T17:56:07.139Z,4.40
2018-04-01T17:58:34.089Z,4.30
2018-04-01T18:01:01.027Z,4.30
2018-04-01T18:03:27.998Z,4.20
2018-04-01T18:05:54.996Z,4.10
2018-04-01T18:08:21.948Z,4.10
2018-04-01T18:10:48.885Z,4.00
2018-04-01T18:13:15.838Z,4.00
2018-04-01T18:15:42.779Z,3.90
2018-04-01T18:18:09.830Z,3.90
2018-04-01T18:20:36.764Z,3.80
2018-04-01T18:23:03.727Z,3.70
2018-04-01T18:25:30.666Z,3.70
2018-04-01T18:27:57.616Z,3.60
2018-04-01T18:30:24.645Z,3.60
2018-04-01T18:32:51.603Z,3.60
2018-04-01T18:35:18.608Z,3.50
2018-04-01T18:37:45.534Z,3.50
2018-04-01T18:40:12.502Z,3.50
2018-04-01T18:42:40.296Z,3.40
2018-04-01T18:45:07.251Z,3.30
2018-04-01T18:47:34.208Z,3.30
2018-04-01T18:50:01.334Z,3.30
2018-04-01T18:52:28.332Z,3.30
2018-04-01T18:54:55.323Z,3.30
2018-04-01T18:57:22.250Z,3.20
2018-04-01T18:59:49.238Z,3.20
2018-04-01T19:02:16.209Z,3.10
2018-04-01T19:04:43.225Z,3.10
2018-04-01T19:07:10.302Z,3.00
2018-04-01T19:09:37.239Z,3.00
2018-04-01T19:12:04.228Z,3.00
2018-04-01T19:14:31.228Z,3.00
2018-04-01T19:17:07.336Z,2.90
2018-04-01T19:19:34.768Z,2.90
2018-04-01T19:22:02.200Z,2.90
2018-04-01T19:24:29.690Z,2.90
2018-04-01T19:26:57.260Z,2.90
2018-04-01T19:29:24.673Z,2.80
2018-04-01T19:31:52.180Z,2.80
2018-04-01T19:34:19.759Z,2.80
2018-04-01T19:36:47.282Z,2.80
2018-04-01T19:39:14.741Z,2.70
2018-04-01T19:41:42.314Z,2.70
2018-04-01T19:44:09.860Z,2.70
2018-04-01T19:46:37.312Z,2.70
2018-04-01T19:49:04.762Z,2.60
2018-04-01T19:51:32.198Z,2.60
2018-04-01T19:53:59.790Z,2.60
2018-04-01T19:56:27.230Z,2.60
2018-04-01T19:58:55.814Z,2.60
2018-04-01T20:01:23.258Z,2.50
2018-04-01T20:03:50.711Z,2.60
2018-04-01T20:06:18.193Z,2.60
2018-04-01T20:08:45.671Z,2.50
2018-04-01T20:11:13.114Z,2.50
2018-04-01T20:13:40.617Z,2.50
2018-04-01T20:16:08.199Z,2.50
2018-04-01T20:18:35.669Z,2.50
2018-04-01T20:21:03.134Z,2.50
2018-04-01T20:23:30.567Z,2.40
2018-04-01T20:25:58.025Z,2.40
2018-04-01T20:28:25.493Z,2.40
2018-04-01T20:30:52.958Z,2.40
2018-04-01T20:33:20.406Z,2.40
2018-04-01T20:35:47.852Z,2.40
2018-04-01T20:38:15.310Z,2.40
2018-04-01T20:40:42.733Z,2.40
2018-04-01T20:43:10.935Z,2.40
2018-04-01T20:45:38.396Z,2.30
2018-04-01T20:48:05.858Z,2.30
2018-04-01T20:50:33.328Z,2.30
2018-04-01T20:53:00.785Z,2.30
2018-04-01T20:55:28.259Z,2.30
2018-04-01T20:57:55.681Z,2.30
2018-04-01T21:00:23.124Z,2.30
2018-04-01T21:02:50.561Z,2.20
2018-04-01T21:05:18.026Z,2.20
2018-04-01T21:07:45.559Z,2.20
2018-04-01T21:10:13.114Z,2.20
2018-04-01T21:12:41.538Z,2.20
2018-04-01T21:15:09.035Z,2.20
2018-04-01T21:17:36.591Z,2.20
2018-04-01T21:20:04.047Z,2.20
2018-04-01T21:22:31.525Z,2.20
2018-04-01T21:24:58.966Z,2.10
2018-04-01T21:27:26.423Z,2.10
2018-04-01T21:29:53.850Z,2.10
2018-04-01T21:32:21.406Z,2.10
2018-04-01T21:34:48.981Z,2.10
2018-04-01T21:37:16.413Z,2.10
2018-04-01T21:39:43.867Z,2.10
2018-04-01T21:42:11.331Z,2.00
2018-04-01T21:44:38.815Z,2.00
2018-04-01T21:47:06.272Z,2.00
2018-04-01T21:49:34.463Z,2.00
2018-04-01T21:52:01.920Z,1.90
2018-04-01T21:54:29.378Z,2.00
2018-04-01T21:56:56.859Z,2.00
2018-04-01T21:59:24.326Z,2.00
2018-04-01T22:01:51.773Z,2.00
2018-04-01T22:04:19.989Z,1.90
2018-04-01T22:06:47.426Z,1.90
2018-04-01T22:09:14.873Z,1.90
2018-04-01T22:11:42.324Z,1.90
2018-04-01T22:14:09.762Z,1.90
2018-04-01T22:16:37.219Z,1.90
2018-04-01T22:19:04.710Z,1.90
2018-04-01T22:21:32.176Z,1.90
2018-04-01T22:23:59.599Z,1.90
2018-04-01T22:26:27.044Z,1.90
2018-04-01T22:28:55.250Z,1.90
2018-04-01T22:31:22.712Z,1.80
2018-04-01T22:33:50.194Z,1.90
2018-04-01T22:36:17.625Z,1.90
2018-04-01T22:38:45.076Z,1.80
2018-04-01T22:41:12.549Z,1.80
2018-04-01T22:43:40.007Z,1.80
2018-04-01T22:46:07.446Z,1.80
2018-04-01T22:48:34.885Z,1.80
2018-04-01T22:51:02.357Z,1.70
2018-04-01T22:53:29.902Z,1.70
2018-04-01T22:55:57.329Z,1.70
2018-04-01T22:58:25.542Z,1.70
2018-04-01T23:00:53.010Z,1.70
2018-04-01T23:03:20.417Z,1.80
2018-04-01T23:05:48.735Z,1.70
2018-04-01T23:08:16.150Z,1.70
2018-04-01T23:10:44.393Z,1.70
2018-04-01T23:13:11.833Z,1.60
2018-04-01T23:15:39.377Z,1.60
2018-04-01T23:18:06.855Z,1.60
2018-04-01T23:20:34.344Z,1.60
2018-04-01T23:23:01.766Z,1.60
2018-04-01T23:25:29.846Z,1.60
2018-04-01T23:27:57.403Z,1.60
2018-04-01T23:30:24.858Z,1.60
2018-04-01T23:32:52.298Z,1.60
2018-04-01T23:35:19.766Z,1.60
2018-04-01T23:37:47.210Z,1.60
2018-04-01T23:40:14.656Z,1.60
2018-04-01T23:42:42.140Z,1.60
2018-04-01T23:45:09.599Z,1.60
2018-04-01T23:47:37.133Z,1.50
2018-04-01T23:50:04.578Z,1.60
2018-04-01T23:52:32.062Z,1.50
2018-04-01T23:54:59.522Z,1.50
2018-04-01T23:57:26.954Z,1.50
2018-04-01T23:59:54.444Z,1.50
